createdAt,value
2022-12-13T00:01:33.679Z,99158.22
2022-12-13T00:04:03.534Z,99163.16
2022-12-13T00:06:30.912Z,99157.53
2022-12-13T00:08:59.041Z,99143.13
2022-12-13T00:11:26.941Z,99163.56
2022-12-13T00:13:55.016Z,99156.38
2022-12-13T00:16:23.904Z,99155.75
2022-12-13T00:18:54.101Z,99168.78
2022-12-13T00:21:22.540Z,99156.78
2022-12-13T00:23:49.992Z,99166.41
2022-12-13T00:26:20.951Z,99141.19
2022-12-13T00:28:51.434Z,99158.22
2022-12-13T00:31:53.446Z,99149.66
2022-12-13T00:34:06.461Z,99143.34
2022-12-13T00:36:33.294Z,99145.44
2022-12-13T00:39:03.263Z,99156.81
2022-12-13T00:41:34.001Z,99161.09
2022-12-13T00:44:01.781Z,99155.72
2022-12-13T00:46:29.124Z,99164.63
2022-12-13T00:48:59.000Z,99147.25
2022-12-13T00:51:27.409Z,99145.50
2022-12-13T00:53:54.241Z,99135.00
2022-12-13T00:56:23.764Z,99138.38
2022-12-13T00:58:52.339Z,99141.56
2022-12-13T01:01:24.749Z,99133.09
2022-12-13T01:03:53.617Z,99128.16
2022-12-13T01:06:23.746Z,99123.13
2022-12-13T01:08:50.646Z,99120.59
2022-12-13T01:11:18.371Z,99106.94
2022-12-13T01:13:45.309Z,99123.75
2022-12-13T01:16:14.414Z,99111.53
2022-12-13T01:18:41.643Z,99122.72
2022-12-13T01:21:12.811Z,99114.25
2022-12-13T01:23:40.304Z,99114.25
2022-12-13T01:26:11.596Z,99128.03
2022-12-13T01:28:38.487Z,99138.44
2022-12-13T01:31:08.288Z,99125.19
2022-12-13T01:33:35.890Z,99133.19
2022-12-13T01:36:05.063Z,99139.63
2022-12-13T01:38:32.190Z,99142.81
2022-12-13T01:41:17.016Z,99147.38
2022-12-13T01:43:44.744Z,99138.81
2022-12-13T01:46:12.684Z,99119.47
2022-12-13T01:48:44.989Z,99112.88
2022-12-13T01:51:15.529Z,99103.03
2022-12-13T01:53:45.457Z,99126.50
2022-12-13T01:56:21.426Z,99118.97
2022-12-13T01:58:50.228Z,99114.63
2022-12-13T02:01:18.147Z,99113.47
2022-12-13T02:03:45.709Z,99133.31
2022-12-13T02:06:17.811Z,99118.41
2022-12-13T02:08:46.980Z,99135.41
2022-12-13T02:11:15.783Z,99125.59
2022-12-13T02:13:42.579Z,99134.50
2022-12-13T02:16:25.484Z,99128.53
2022-12-13T02:19:06.376Z,99127.91
2022-12-13T02:21:35.986Z,99136.59
2022-12-13T02:24:24.292Z,99142.72
2022-12-13T02:26:55.594Z,99148.81
2022-12-13T02:29:43.839Z,99129.69
2022-12-13T02:32:26.946Z,99121.09
2022-12-13T02:35:12.527Z,99130.72
2022-12-13T02:38:01.197Z,99115.94
2022-12-13T02:40:37.895Z,99118.06
2022-12-13T02:43:09.859Z,99116.88
2022-12-13T02:45:48.656Z,99119.56
2022-12-13T02:48:26.176Z,99117.94
2022-12-13T02:50:54.005Z,99107.03
2022-12-13T02:53:22.727Z,99120.63
2022-12-13T02:55:49.553Z,99115.94
2022-12-13T02:58:22.669Z,99122.78
2022-12-13T03:00:55.318Z,99127.22
2022-12-13T03:03:43.177Z,99124.41
2022-12-13T03:06:35.716Z,99130.03
2022-12-13T03:09:24.857Z,99114.91
2022-12-13T03:12:22.465Z,99097.13
2022-12-13T03:15:21.082Z,99086.22
2022-12-13T03:18:15.843Z,99088.69
2022-12-13T03:21:03.255Z,99103.03
2022-12-13T03:23:30.890Z,99100.06
2022-12-13T03:26:04.668Z,99091.25
2022-12-13T03:28:31.522Z,99093.22
2022-12-13T03:30:58.272Z,99095.00
2022-12-13T03:33:25.155Z,99098.53
2022-12-13T03:35:52.070Z,99093.09
2022-12-13T03:38:22.153Z,99091.19
2022-12-13T03:41:03.286Z,99091.56
2022-12-13T03:43:30.136Z,99087.38
2022-12-13T03:45:57.126Z,99090.84
2022-12-13T03:48:24.522Z,99083.66
2022-12-13T03:50:53.012Z,99076.56
2022-12-13T03:53:22.751Z,99077.03
2022-12-13T03:56:01.356Z,99067.88
2022-12-13T03:58:35.080Z,99063.84
2022-12-13T04:01:07.535Z,99067.59
2022-12-13T04:03:34.605Z,99064.31
2022-12-13T04:06:01.342Z,99074.44
2022-12-13T04:08:28.132Z,99059.84
2022-12-13T04:10:54.860Z,99053.38
2022-12-13T04:13:33.929Z,99063.47
2022-12-13T04:16:02.077Z,99048.13
2022-12-13T04:18:29.134Z,99062.56
2022-12-13T04:20:55.936Z,99060.31
2022-12-13T04:23:22.863Z,99066.41
2022-12-13T04:25:49.726Z,99072.50
2022-12-13T04:28:21.813Z,99070.25
2022-12-13T04:30:52.699Z,99068.69
2022-12-13T04:33:21.905Z,99058.59
2022-12-13T04:35:49.198Z,99065.53
2022-12-13T04:38:16.547Z,99052.72
2022-12-13T04:40:43.318Z,99046.69
2022-12-13T04:43:10.323Z,99041.84
2022-12-13T04:45:37.323Z,99045.06
2022-12-13T04:48:04.459Z,99051.50
2022-12-13T04:50:31.176Z,99032.47
2022-12-13T04:52:58.006Z,99037.88
2022-12-13T04:55:24.708Z,99036.22
2022-12-13T04:57:51.458Z,99038.69
2022-12-13T05:00:18.451Z,99028.94
2022-12-13T05:02:45.196Z,99042.22
2022-12-13T05:05:12.362Z,99035.41
2022-12-13T05:07:42.755Z,99031.28
2022-12-13T05:10:11.371Z,99026.38
2022-12-13T05:12:38.137Z,99042.13
2022-12-13T05:15:05.693Z,99023.63
2022-12-13T05:17:32.547Z,99024.03
2022-12-13T05:19:59.325Z,99018.75
2022-12-13T05:22:26.800Z,99011.00
2022-12-13T05:24:53.503Z,99017.47
2022-12-13T05:27:25.186Z,99011.25
2022-12-13T05:30:02.402Z,98998.69
2022-12-13T05:32:43.575Z,98992.25
2022-12-13T05:35:22.315Z,98993.06
2022-12-13T05:37:55.252Z,98993.81
2022-12-13T05:40:26.809Z,98989.88
2022-12-13T05:43:01.413Z,99004.09
2022-12-13T05:45:30.586Z,98979.41
2022-12-13T05:47:57.482Z,98997.25
2022-12-13T05:50:24.981Z,98988.69
2022-12-13T05:52:52.042Z,98987.69
2022-12-13T05:55:19.164Z,98986.16
2022-12-13T05:57:50.260Z,98989.88
2022-12-13T06:00:29.065Z,98987.50
2022-12-13T06:03:00.905Z,98974.88
2022-12-13T06:05:31.171Z,98970.41
2022-12-13T06:07:58.631Z,98972.78
2022-12-13T06:10:34.293Z,98979.25
2022-12-13T06:13:21.656Z,98978.34
2022-12-13T06:15:50.473Z,98968.50
2022-12-13T06:18:17.395Z,98963.50
2022-12-13T06:20:44.230Z,98965.38
2022-12-13T06:23:10.989Z,98962.22
2022-12-13T06:25:37.866Z,98964.47
2022-12-13T06:28:04.926Z,98960.50
2022-12-13T06:30:32.118Z,98957.56
2022-12-13T06:32:59.061Z,98965.19
2022-12-13T06:35:28.027Z,98961.94
2022-12-13T06:38:00.907Z,98950.91
2022-12-13T06:40:33.861Z,98935.81
2022-12-13T06:43:00.956Z,98953.56
2022-12-13T06:45:27.752Z,98926.75
2022-12-13T06:47:55.946Z,98955.28
2022-12-13T06:50:22.681Z,98954.81
2022-12-13T06:52:49.408Z,98951.97
2022-12-13T06:55:23.534Z,98934.59
2022-12-13T06:57:51.738Z,98937.75
2022-12-13T07:00:22.182Z,98942.09
2022-12-13T07:02:56.880Z,98939.81
2022-12-13T07:05:25.175Z,98938.69
2022-12-13T07:07:52.135Z,98935.25
2022-12-13T07:10:22.175Z,98931.13
2022-12-13T07:12:50.164Z,98906.91
2022-12-13T07:15:16.967Z,98909.84
2022-12-13T07:17:43.868Z,98916.19
2022-12-13T07:20:11.717Z,98913.59
2022-12-13T07:22:46.712Z,98898.88
2022-12-13T07:25:28.515Z,98912.84
2022-12-13T07:28:01.960Z,98901.59
2022-12-13T07:30:31.105Z,98903.59
2022-12-13T07:32:58.437Z,98905.94
2022-12-13T07:35:25.397Z,98906.28
2022-12-13T07:37:52.179Z,98913.91
2022-12-13T07:40:18.862Z,98916.81
2022-12-13T07:42:53.483Z,98901.59
2022-12-13T07:45:21.163Z,98921.06
2022-12-13T07:47:47.891Z,98919.41
2022-12-13T07:50:24.979Z,98916.88
2022-12-13T07:52:52.957Z,98916.88
2022-12-13T07:55:32.823Z,98920.03
2022-12-13T07:58:05.182Z,98898.00
2022-12-13T08:00:33.098Z,98904.69
2022-12-13T08:03:01.736Z,98896.00
2022-12-13T08:05:29.241Z,98895.91
2022-12-13T08:08:08.683Z,98886.06
2022-12-13T08:10:35.659Z,98897.09
2022-12-13T08:13:03.361Z,98899.09
2022-12-13T08:15:30.525Z,98904.25
2022-12-13T08:17:58.160Z,98897.69
2022-12-13T08:20:25.296Z,98893.25
2022-12-13T08:23:01.685Z,98886.22
2022-12-13T08:25:29.696Z,98899.91
2022-12-13T08:28:01.433Z,98894.66
2022-12-13T08:30:29.420Z,98902.16
2022-12-13T08:32:56.161Z,98907.09
2022-12-13T08:35:22.983Z,98907.91
2022-12-13T08:37:49.739Z,98891.84
2022-12-13T08:40:16.465Z,98865.34
2022-12-13T08:42:43.315Z,98850.00
2022-12-13T08:45:10.656Z,98864.19
2022-12-13T08:47:41.763Z,98876.00
2022-12-13T08:50:09.162Z,98856.78
2022-12-13T08:52:39.651Z,98859.00
2022-12-13T08:55:13.138Z,98842.63
2022-12-13T08:57:41.270Z,98856.88
2022-12-13T09:00:12.353Z,98851.34
2022-12-13T09:02:39.328Z,98866.69
2022-12-13T09:05:08.005Z,98871.31
2022-12-13T09:07:36.449Z,98881.00
2022-12-13T09:10:07.011Z,98864.13
2022-12-13T09:12:34.246Z,98868.59
2022-12-13T09:15:22.365Z,98897.56
2022-12-13T09:17:52.555Z,98898.72
2022-12-13T09:20:29.599Z,98899.66
2022-12-13T09:23:01.708Z,98903.28
2022-12-13T09:25:36.487Z,98904.09
2022-12-13T09:28:06.935Z,98899.88
2022-12-13T09:30:34.446Z,98919.22
2022-12-13T09:33:17.661Z,98908.75
2022-12-13T09:35:48.018Z,98904.31
2022-12-13T09:38:14.892Z,98923.41
2022-12-13T09:40:45.884Z,98891.53
2022-12-13T09:43:31.368Z,98898.69
2022-12-13T09:46:13.058Z,98899.59
2022-12-13T09:48:52.379Z,98893.44
2022-12-13T09:51:29.982Z,98890.03
2022-12-13T09:54:07.096Z,98895.91
2022-12-13T09:56:33.834Z,98887.47
2022-12-13T09:59:00.581Z,98877.75
2022-12-13T10:01:27.939Z,98862.13
2022-12-13T10:03:59.560Z,98875.84
2022-12-13T10:06:31.659Z,98883.84
2022-12-13T10:09:00.598Z,98904.22
2022-12-13T10:11:32.377Z,98889.47
2022-12-13T10:14:17.352Z,98871.91
2022-12-13T10:16:49.425Z,98865.34
2022-12-13T10:19:29.484Z,98898.03
2022-12-13T10:22:01.424Z,98892.19
2022-12-13T10:24:48.604Z,98885.53
2022-12-13T10:27:18.175Z,98894.41
2022-12-13T10:30:06.617Z,98896.66
2022-12-13T10:32:43.563Z,98904.84
2022-12-13T10:35:24.860Z,98898.53
2022-12-13T10:37:51.884Z,98897.81
2022-12-13T10:40:31.891Z,98899.13
2022-12-13T10:43:27.654Z,98901.69
2022-12-13T10:45:57.988Z,98916.44
2022-12-13T10:48:40.948Z,98901.94
2022-12-13T10:51:09.341Z,98903.78
2022-12-13T10:53:58.468Z,98895.59
2022-12-13T10:56:45.795Z,98895.13
2022-12-13T10:59:25.986Z,98884.13
2022-12-13T11:01:53.336Z,98886.56
2022-12-13T11:04:27.086Z,98887.97
2022-12-13T11:06:55.901Z,98870.88
2022-12-13T11:09:38.257Z,98870.88
2022-12-13T11:12:14.850Z,98856.00
2022-12-13T11:14:55.306Z,98853.78
2022-12-13T11:17:24.540Z,98852.25
2022-12-13T11:20:20.048Z,98849.09
2022-12-13T11:22:47.363Z,98847.34
2022-12-13T11:25:41.158Z,98834.34
2022-12-13T11:28:29.727Z,98854.03
2022-12-13T11:31:52.132Z,98843.47
2022-12-13T11:34:18.909Z,98834.56
2022-12-13T11:37:15.856Z,98828.25
2022-12-13T11:39:50.506Z,98811.25
2022-12-13T11:42:46.490Z,98822.50
2022-12-13T11:45:22.348Z,98810.44
2022-12-13T11:48:08.672Z,98822.72
2022-12-13T11:50:40.814Z,98810.91
2022-12-13T11:53:31.545Z,98816.88
2022-12-13T11:56:26.259Z,98787.56
2022-12-13T11:59:27.236Z,98797.19
2022-12-13T12:02:21.803Z,98791.09
2022-12-13T12:04:56.413Z,98798.59
2022-12-13T12:08:12.812Z,98780.44
2022-12-13T12:10:49.360Z,98762.63
2022-12-13T12:13:50.811Z,98752.91
2022-12-13T12:16:25.418Z,98748.22
2022-12-13T12:18:53.038Z,98716.56
2022-12-13T12:22:15.232Z,98708.03
2022-12-13T12:24:43.040Z,98725.59
2022-12-13T12:27:25.027Z,98709.69
2022-12-13T12:30:23.247Z,98706.09
2022-12-13T12:33:08.930Z,98701.97
2022-12-13T12:35:52.849Z,98692.69
2022-12-13T12:38:41.059Z,98695.00
2022-12-13T12:41:26.831Z,98706.00
2022-12-13T12:44:13.516Z,98717.97
2022-12-13T12:47:28.610Z,98718.88
2022-12-13T12:50:00.408Z,98707.03
2022-12-13T12:52:51.414Z,98701.31
2022-12-13T12:55:36.392Z,98719.09
2022-12-13T12:58:09.244Z,98743.97
2022-12-13T13:01:04.948Z,98721.00
2022-12-13T13:03:36.995Z,98720.03
2022-12-13T13:06:20.248Z,98742.28
2022-12-13T13:08:59.459Z,98764.16
2022-12-13T13:11:34.203Z,98738.47
2022-12-13T13:14:33.231Z,98706.81
2022-12-13T13:17:21.110Z,98689.09
2022-12-13T13:19:50.252Z,98682.16
2022-12-13T13:22:58.393Z,98696.78
2022-12-13T13:25:35.158Z,98697.47
2022-12-13T13:28:18.922Z,98692.75
2022-12-13T13:31:09.459Z,98712.09
2022-12-13T13:33:45.262Z,98720.50
2022-12-13T13:36:41.418Z,98714.44
2022-12-13T13:39:19.599Z,98701.84
2022-12-13T13:41:52.255Z,98698.84
2022-12-13T13:44:34.660Z,98692.78
2022-12-13T13:47:31.422Z,98690.41
2022-12-13T13:50:12.879Z,98678.78
2022-12-13T13:52:51.510Z,98676.88
2022-12-13T13:55:27.191Z,98684.59
2022-12-13T13:58:10.448Z,98663.53
2022-12-13T14:00:56.969Z,98664.59
2022-12-13T14:03:43.222Z,98698.84
2022-12-13T14:06:42.516Z,98695.16
2022-12-13T14:09:19.160Z,98688.59
2022-12-13T14:12:13.803Z,98687.19
2022-12-13T14:15:05.890Z,98687.41
2022-12-13T14:18:09.955Z,98695.38
2022-12-13T14:21:09.619Z,98692.81
2022-12-13T14:23:48.767Z,98698.91
2022-12-13T14:26:30.735Z,98692.25
2022-12-13T14:29:00.691Z,98689.09
2022-12-13T14:31:39.497Z,98690.53
2022-12-13T14:34:08.459Z,98701.50
2022-12-13T14:36:36.749Z,98694.72
2022-12-13T14:39:24.787Z,98695.06
2022-12-13T14:41:56.317Z,98692.81
2022-12-13T14:44:31.938Z,98703.16
2022-12-13T14:47:08.257Z,98711.13
2022-12-13T14:49:39.155Z,98697.88
2022-12-13T14:52:09.510Z,98704.78
2022-12-13T14:54:59.462Z,98702.50
2022-12-13T14:57:29.952Z,98712.59
2022-12-13T14:59:59.174Z,98709.78
2022-12-13T15:02:32.149Z,98710.13
2022-12-13T15:05:02.107Z,98706.88
2022-12-13T15:07:41.587Z,98696.47
2022-12-13T15:10:48.337Z,98707.50
2022-12-13T15:13:29.049Z,98717.13
2022-12-13T15:16:00.933Z,98726.00
2022-12-13T15:18:29.608Z,98736.53
2022-12-13T15:20:58.155Z,98736.19
2022-12-13T15:23:31.651Z,98738.06
2022-12-13T15:26:08.412Z,98754.31
2022-12-13T15:28:39.516Z,98752.91
2022-12-13T15:31:07.050Z,98767.44
2022-12-13T15:33:40.902Z,98768.47
2022-12-13T15:36:23.369Z,98781.34
2022-12-13T15:38:55.788Z,98786.75
2022-12-13T15:41:32.223Z,98785.81
2022-12-13T15:44:07.982Z,98800.31
2022-12-13T15:46:38.299Z,98784.97
2022-12-13T15:49:14.659Z,98793.88
2022-12-13T15:52:06.386Z,98797.56
2022-12-13T15:54:33.469Z,98791.66
2022-12-13T15:57:24.270Z,98794.75
2022-12-13T16:00:31.041Z,98796.13
2022-12-13T16:02:59.629Z,98811.94
2022-12-13T16:05:32.846Z,98801.75
2022-12-13T16:08:14.308Z,98811.72
2022-12-13T16:10:47.405Z,98818.75
2022-12-13T16:13:26.101Z,98802.00
2022-12-13T16:16:27.552Z,98812.91
2022-12-13T16:18:59.984Z,98813.47
2022-12-13T16:21:28.481Z,98814.06
2022-12-13T16:23:55.203Z,98817.34
2022-12-13T16:26:26.385Z,98829.41
2022-12-13T16:28:54.668Z,98834.22
2022-12-13T16:31:24.504Z,98844.75
2022-12-13T16:33:51.808Z,98856.00
2022-12-13T16:36:18.764Z,98863.25
2022-12-13T16:38:45.893Z,98856.72
2022-12-13T16:41:14.876Z,98864.78
2022-12-13T16:43:54.437Z,98854.94
2022-12-13T16:47:12.142Z,98865.38
2022-12-13T16:49:23.265Z,98847.56
2022-12-13T16:51:50.319Z,98872.38
2022-12-13T16:54:19.343Z,98883.19
2022-12-13T16:56:47.763Z,98876.38
2022-12-13T16:59:20.096Z,98877.78
2022-12-13T17:01:47.192Z,98889.50
2022-12-13T17:04:20.689Z,98880.47
2022-12-13T17:06:50.217Z,98879.44
2022-12-13T17:09:17.969Z,98880.72
2022-12-13T17:11:47.317Z,98869.59
2022-12-13T17:14:14.198Z,98870.84
2022-12-13T17:16:40.996Z,98866.16
2022-12-13T17:19:07.759Z,98863.72
2022-12-13T17:21:35.100Z,98851.06
2022-12-13T17:24:03.176Z,98859.59
2022-12-13T17:26:29.960Z,98860.09
2022-12-13T17:28:56.831Z,98883.16
2022-12-13T17:31:23.956Z,98884.81
2022-12-13T17:33:50.818Z,98888.53
2022-12-13T17:36:17.624Z,98897.69
2022-12-13T17:38:46.137Z,98897.47
2022-12-13T17:41:16.359Z,98903.44
2022-12-13T17:43:43.903Z,98914.91
2022-12-13T17:46:16.806Z,98910.81
2022-12-13T17:48:45.643Z,98920.63
2022-12-13T17:51:14.153Z,98923.13
2022-12-13T17:53:42.915Z,98937.28
2022-12-13T17:56:12.689Z,98935.28
2022-12-13T17:58:40.300Z,98938.47
2022-12-13T18:01:15.632Z,98934.94
2022-12-13T18:03:42.881Z,98941.41
2022-12-13T18:06:10.304Z,98944.09
2022-12-13T18:08:39.140Z,98933.56
2022-12-13T18:11:31.652Z,98939.63
2022-12-13T18:13:55.806Z,98943.72
2022-12-13T18:16:30.320Z,98939.41
2022-12-13T18:19:01.262Z,98940.22
2022-12-13T18:21:28.216Z,98963.19
2022-12-13T18:23:56.149Z,98972.81
2022-12-13T18:26:24.783Z,98972.94
2022-12-13T18:28:51.952Z,98980.56
2022-12-13T18:31:22.128Z,98979.97
2022-12-13T18:33:50.391Z,98986.44
2022-12-13T18:36:17.770Z,98996.88
2022-12-13T18:38:45.004Z,98993.56
2022-12-13T18:41:15.165Z,99003.31
2022-12-13T18:43:43.266Z,99010.25
2022-12-13T18:46:11.131Z,99017.16
2022-12-13T18:48:38.291Z,99016.31
2022-12-13T18:51:07.682Z,99014.47
2022-12-13T18:53:35.270Z,99010.00
2022-12-13T18:56:05.000Z,99014.91
2022-12-13T18:58:32.846Z,99014.91
2022-12-13T19:01:00.414Z,99026.16
2022-12-13T19:03:27.563Z,99038.97
2022-12-13T19:05:57.080Z,99034.16
2022-12-13T19:08:26.472Z,99039.44
2022-12-13T19:10:55.129Z,99046.56
2022-12-13T19:13:23.844Z,99045.31
2022-12-13T19:15:56.180Z,99048.47
2022-12-13T19:18:23.371Z,99061.34
2022-12-13T19:20:54.231Z,99057.38
2022-12-13T19:23:21.367Z,99065.84
2022-12-13T19:25:48.848Z,99068.75
2022-12-13T19:28:17.717Z,99068.41
2022-12-13T19:30:46.275Z,99071.31
2022-12-13T19:33:13.648Z,99074.50
2022-12-13T19:35:43.737Z,99075.44
2022-12-13T19:38:10.801Z,99085.88
2022-12-13T19:40:42.164Z,99084.84
2022-12-13T19:43:09.161Z,99082.59
2022-12-13T19:45:36.139Z,99082.00
2022-12-13T19:48:03.420Z,99080.47
2022-12-13T19:50:30.459Z,99078.84
2022-12-13T19:52:57.279Z,99092.56
2022-12-13T19:55:24.070Z,99092.56
2022-12-13T19:57:50.795Z,99100.56
2022-12-13T20:00:17.808Z,99096.69
2022-12-13T20:02:44.760Z,99105.59
2022-12-13T20:05:11.733Z,99099.59
2022-12-13T20:07:38.726Z,99114.63
2022-12-13T20:10:06.177Z,99117.44
2022-12-13T20:12:38.865Z,99129.50
2022-12-13T20:15:08.673Z,99106.66
2022-12-13T20:17:36.248Z,99117.44
2022-12-13T20:20:04.328Z,99115.81
2022-12-13T20:22:33.049Z,99116.25
2022-12-13T20:25:00.951Z,99108.88
2022-12-13T20:27:28.022Z,99124.72
2022-12-13T20:29:54.948Z,99130.94
2022-12-13T20:32:21.735Z,99133.41
2022-12-13T20:34:53.225Z,99127.66
2022-12-13T20:37:22.360Z,99142.22
2022-12-13T20:39:49.570Z,99140.91
2022-12-13T20:42:16.503Z,99139.41
2022-12-13T20:44:43.272Z,99144.19
2022-12-13T20:47:10.114Z,99152.63
2022-12-13T20:49:37.664Z,99144.19
2022-12-13T20:52:04.700Z,99153.00
2022-12-13T20:54:31.558Z,99153.81
2022-12-13T20:56:58.344Z,99158.94
2022-12-13T20:59:25.144Z,99162.25
2022-12-13T21:01:51.980Z,99142.31
2022-12-13T21:04:18.911Z,99144.88
2022-12-13T21:06:45.723Z,99141.50
2022-12-13T21:09:12.985Z,99152.50
2022-12-13T21:11:45.388Z,99155.69
2022-12-13T21:14:22.017Z,99158.84
2022-12-13T21:16:52.141Z,99167.53
2022-12-13T21:19:23.012Z,99161.28
2022-12-13T21:21:50.635Z,99176.31
2022-12-13T21:24:19.018Z,99176.78
2022-12-13T21:26:46.614Z,99189.22
2022-12-13T21:29:14.734Z,99184.06
2022-12-13T21:31:43.263Z,99166.47
2022-12-13T21:34:11.291Z,99184.06
2022-12-13T21:36:41.317Z,99185.72
2022-12-13T21:39:10.214Z,99191.13
2022-12-13T21:41:37.022Z,99191.81
2022-12-13T21:44:04.282Z,99182.19
2022-12-13T21:46:55.258Z,99186.16
2022-12-13T21:49:18.201Z,99193.56
2022-12-13T21:51:48.171Z,99198.81
2022-12-13T21:54:15.682Z,99189.56
2022-12-13T21:57:01.256Z,99212.09
2022-12-13T21:59:28.929Z,99206.34
2022-12-13T22:02:18.081Z,99213.84
2022-12-13T22:04:52.971Z,99194.56
2022-12-13T22:07:24.178Z,99203.16
2022-12-13T22:09:52.612Z,99196.22
2022-12-13T22:12:25.727Z,99189.88
2022-12-13T22:14:53.864Z,99200.94
2022-12-13T22:17:26.965Z,99213.34
2022-12-13T22:19:55.739Z,99211.47
2022-12-13T22:22:24.247Z,99209.00
2022-12-13T22:24:53.760Z,99212.81
2022-12-13T22:27:24.298Z,99223.13
2022-12-13T22:29:52.683Z,99214.22
2022-12-13T22:32:20.243Z,99216.44
2022-12-13T22:34:47.156Z,99218.63
2022-12-13T22:37:13.865Z,99216.72
2022-12-13T22:39:40.609Z,99216.91
2022-12-13T22:42:07.640Z,99227.22
2022-12-13T22:44:34.416Z,99223.47
2022-12-13T22:47:01.179Z,99219.69
2022-12-13T22:49:28.070Z,99221.06
2022-12-13T22:51:54.828Z,99227.38
2022-12-13T22:54:21.599Z,99234.63
2022-12-13T22:56:53.068Z,99222.09
2022-12-13T22:59:19.919Z,99226.06
2022-12-13T23:01:47.387Z,99221.13
2022-12-13T23:04:14.804Z,99225.94
2022-12-13T23:06:41.991Z,99216.34
2022-12-13T23:09:13.004Z,99210.72
2022-12-13T23:11:58.534Z,99214.69
2022-12-13T23:14:30.658Z,99216.22
2022-12-13T23:16:58.031Z,99217.03
2022-12-13T23:19:41.421Z,99210.28
2022-12-13T23:22:12.247Z,99225.34
2022-12-13T23:24:39.045Z,99229.91
2022-12-13T23:27:05.799Z,99222.53
2022-12-13T23:29:32.488Z,99226.28
2022-12-13T23:31:59.337Z,99232.72
2022-12-13T23:34:26.554Z,99233.09
2022-12-13T23:36:53.279Z,99225.78
2022-12-13T23:39:20.122Z,99226.28
2022-12-13T23:41:46.904Z,99225.09
2022-12-13T23:44:13.609Z,99210.59
2022-12-13T23:46:40.543Z,99214.69
2022-12-13T23:49:07.473Z,99221.25
2022-12-13T23:51:34.821Z,99212.50
2022-12-13T23:54:01.695Z,99211.31
2022-12-13T23:56:29.409Z,99197.41
2022-12-13T23:58:56.596Z,99204.56
